sensor_id;sensor_type;location;lat;lon;timestamp;P1;durP1;ratioP1;P2;durP2;ratioP2
56051;SDS011;41919;42.648;23.384;2023-07-28T00:01:23;2.90;;;2.33;;
56051;SDS011;41919;42.648;23.384;2023-07-28T00:03:48;3.78;;;2.65;;
56051;SDS011;41919;42.648;23.384;2023-07-28T00:06:14;2.72;;;2.50;;
56051;SDS011;41919;42.648;23.384;2023-07-28T00:08:39;2.90;;;2.70;;
56051;SDS011;41919;42.648;23.384;2023-07-28T00:11:08;2.67;;;2.45;;
56051;SDS011;41919;42.648;23.384;2023-07-28T00:13:35;2.70;;;2.50;;
56051;SDS011;41919;42.648;23.384;2023-07-28T00:16:00;2.90;;;2.70;;
56051;SDS011;41919;42.648;23.384;2023-07-28T00:18:25;3.85;;;2.80;;
56051;SDS011;41919;42.648;23.384;2023-07-28T00:20:51;6.95;;;2.67;;
56051;SDS011;41919;42.648;23.384;2023-07-28T00:23:16;2.70;;;2.50;;
56051;SDS011;41919;42.648;23.384;2023-07-28T00:25:41;2.90;;;2.58;;
56051;SDS011;41919;42.648;23.384;2023-07-28T00:28:07;3.90;;;2.95;;
56051;SDS011;41919;42.648;23.384;2023-07-28T00:30:32;3.33;;;2.67;;
56051;SDS011;41919;42.648;23.384;2023-07-28T00:32:58;2.67;;;2.47;;
56051;SDS011;41919;42.648;23.384;2023-07-28T00:35:23;2.58;;;2.47;;
56051;SDS011;41919;42.648;23.384;2023-07-28T00:37:48;3.00;;;2.80;;
56051;SDS011;41919;42.648;23.384;2023-07-28T00:40:14;2.83;;;2.55;;
56051;SDS011;41919;42.648;23.384;2023-07-28T00:42:39;2.85;;;2.65;;
56051;SDS011;41919;42.648;23.384;2023-07-28T00:45:05;3.05;;;2.45;;
56051;SDS011;41919;42.648;23.384;2023-07-28T00:47:30;2.78;;;2.50;;
56051;SDS011;41919;42.648;23.384;2023-07-28T00:49:56;3.20;;;2.92;;
56051;SDS011;41919;42.648;23.384;2023-07-28T00:52:21;3.63;;;3.33;;
56051;SDS011;41919;42.648;23.384;2023-07-28T00:54:47;2.78;;;2.58;;
56051;SDS011;41919;42.648;23.384;2023-07-28T00:57:12;2.83;;;2.63;;
56051;SDS011;41919;42.648;23.384;2023-07-28T00:59:38;3.00;;;2.67;;
56051;SDS011;41919;42.648;23.384;2023-07-28T01:02:03;3.03;;;2.58;;
56051;SDS011;41919;42.648;23.384;2023-07-28T01:04:29;2.67;;;2.47;;
56051;SDS011;41919;42.648;23.384;2023-07-28T01:07:03;2.78;;;2.58;;
56051;SDS011;41919;42.648;23.384;2023-07-28T01:12:26;3.10;;;2.80;;
56051;SDS011;41919;42.648;23.384;2023-07-28T01:14:51;4.10;;;3.25;;
56051;SDS011;41919;42.648;23.384;2023-07-28T01:17:16;3.13;;;2.83;;
56051;SDS011;41919;42.648;23.384;2023-07-28T01:19:43;3.78;;;3.20;;
56051;SDS011;41919;42.648;23.384;2023-07-28T01:27:51;3.67;;;3.38;;
56051;SDS011;41919;42.648;23.384;2023-07-28T01:30:18;3.42;;;3.13;;
56051;SDS011;41919;42.648;23.384;2023-07-28T01:32:46;3.17;;;2.90;;
56051;SDS011;41919;42.648;23.384;2023-07-28T01:35:13;3.22;;;3.03;;
56051;SDS011;41919;42.648;23.384;2023-07-28T01:37:38;3.67;;;3.38;;
56051;SDS011;41919;42.648;23.384;2023-07-28T01:40:04;3.40;;;3.00;;
56051;SDS011;41919;42.648;23.384;2023-07-28T01:42:29;3.53;;;3.22;;
56051;SDS011;41919;42.648;23.384;2023-07-28T01:44:55;5.22;;;3.40;;
56051;SDS011;41919;42.648;23.384;2023-07-28T01:47:20;4.00;;;3.70;;
56051;SDS011;41919;42.648;23.384;2023-07-28T01:49:45;3.95;;;3.65;;
56051;SDS011;41919;42.648;23.384;2023-07-28T01:52:11;3.88;;;3.58;;
56051;SDS011;41919;42.648;23.384;2023-07-28T01:54:36;3.17;;;2.95;;
56051;SDS011;41919;42.648;23.384;2023-07-28T01:57:01;3.15;;;2.95;;
56051;SDS011;41919;42.648;23.384;2023-07-28T01:59:27;3.40;;;3.10;;
56051;SDS011;41919;42.648;23.384;2023-07-28T02:01:52;3.50;;;3.20;;
56051;SDS011;41919;42.648;23.384;2023-07-28T02:04:18;3.90;;;3.35;;
56051;SDS011;41919;42.648;23.384;2023-07-28T02:06:43;3.03;;;2.80;;
56051;SDS011;41919;42.648;23.384;2023-07-28T02:09:09;3.60;;;3.15;;
56051;SDS011;41919;42.648;23.384;2023-07-28T02:11:34;3.67;;;3.38;;
56051;SDS011;41919;42.648;23.384;2023-07-28T02:14:00;4.00;;;3.13;;
56051;SDS011;41919;42.648;23.384;2023-07-28T02:16:25;3.38;;;3.10;;
56051;SDS011;41919;42.648;23.384;2023-07-28T02:18:53;3.55;;;3.17;;
56051;SDS011;41919;42.648;23.384;2023-07-28T02:21:21;3.22;;;3.00;;
56051;SDS011;41919;42.648;23.384;2023-07-28T02:23:46;3.33;;;3.03;;
56051;SDS011;41919;42.648;23.384;2023-07-28T02:26:12;4.45;;;3.30;;
56051;SDS011;41919;42.648;23.384;2023-07-28T02:28:38;3.60;;;3.30;;
56051;SDS011;41919;42.648;23.384;2023-07-28T02:31:03;3.38;;;3.08;;
56051;SDS011;41919;42.648;23.384;2023-07-28T02:33:31;3.08;;;2.88;;
56051;SDS011;41919;42.648;23.384;2023-07-28T02:36:00;3.78;;;3.05;;
56051;SDS011;41919;42.648;23.384;2023-07-28T02:38:25;3.97;;;3.10;;
56051;SDS011;41919;42.648;23.384;2023-07-28T02:40:51;3.35;;;3.05;;
56051;SDS011;41919;42.648;23.384;2023-07-28T02:43:16;2.90;;;2.70;;
56051;SDS011;41919;42.648;23.384;2023-07-28T02:45:42;3.90;;;2.53;;
56051;SDS011;41919;42.648;23.384;2023-07-28T02:48:07;3.83;;;3.00;;
56051;SDS011;41919;42.648;23.384;2023-07-28T02:50:32;3.90;;;3.13;;
56051;SDS011;41919;42.648;23.384;2023-07-28T02:52:58;3.13;;;2.83;;
56051;SDS011;41919;42.648;23.384;2023-07-28T02:55:23;3.30;;;3.00;;
56051;SDS011;41919;42.648;23.384;2023-07-28T02:57:48;5.00;;;3.22;;
56051;SDS011;41919;42.648;23.384;2023-07-28T03:00:14;3.83;;;3.00;;
56051;SDS011;41919;42.648;23.384;2023-07-28T03:02:39;4.63;;;2.83;;
56051;SDS011;41919;42.648;23.384;2023-07-28T03:05:05;3.28;;;2.97;;
56051;SDS011;41919;42.648;23.384;2023-07-28T03:07:30;3.58;;;2.88;;
56051;SDS011;41919;42.648;23.384;2023-07-28T03:09:56;3.28;;;2.80;;
56051;SDS011;41919;42.648;23.384;2023-07-28T03:12:21;2.90;;;2.70;;
56051;SDS011;41919;42.648;23.384;2023-07-28T03:14:47;3.03;;;2.70;;
56051;SDS011;41919;42.648;23.384;2023-07-28T03:17:12;2.72;;;2.53;;
56051;SDS011;41919;42.648;23.384;2023-07-28T03:19:38;2.63;;;2.42;;
56051;SDS011;41919;42.648;23.384;2023-07-28T03:22:03;2.75;;;2.55;;
56051;SDS011;41919;42.648;23.384;2023-07-28T03:24:28;2.70;;;2.50;;
56051;SDS011;41919;42.648;23.384;2023-07-28T03:26:54;2.78;;;2.50;;
56051;SDS011;41919;42.648;23.384;2023-07-28T03:29:19;2.80;;;2.60;;
56051;SDS011;41919;42.648;23.384;2023-07-28T03:31:45;4.63;;;2.55;;
56051;SDS011;41919;42.648;23.384;2023-07-28T03:34:10;2.72;;;2.53;;
56051;SDS011;41919;42.648;23.384;2023-07-28T03:36:35;5.22;;;2.70;;
56051;SDS011;41919;42.648;23.384;2023-07-28T03:39:01;5.55;;;2.72;;
56051;SDS011;41919;42.648;23.384;2023-07-28T03:41:26;2.90;;;2.35;;
56051;SDS011;41919;42.648;23.384;2023-07-28T03:43:51;2.90;;;2.30;;
56051;SDS011;41919;42.648;23.384;2023-07-28T03:46:17;3.47;;;2.67;;
56051;SDS011;41919;42.648;23.384;2023-07-28T03:48:42;3.08;;;2.17;;
56051;SDS011;41919;42.648;23.384;2023-07-28T03:51:08;4.13;;;2.20;;
56051;SDS011;41919;42.648;23.384;2023-07-28T03:53:33;3.75;;;2.38;;
56051;SDS011;41919;42.648;23.384;2023-07-28T03:56:00;2.95;;;2.30;;
56051;SDS011;41919;42.648;23.384;2023-07-28T03:58:26;3.83;;;2.40;;
56051;SDS011;41919;42.648;23.384;2023-07-28T04:00:52;2.10;;;1.95;;
56051;SDS011;41919;42.648;23.384;2023-07-28T04:03:18;4.18;;;2.05;;
56051;SDS011;41919;42.648;23.384;2023-07-28T04:05:43;2.47;;;2.28;;
56051;SDS011;41919;42.648;23.384;2023-07-28T04:08:09;4.20;;;2.20;;
56051;SDS011;41919;42.648;23.384;2023-07-28T04:10:34;2.63;;;2.42;;
56051;SDS011;41919;42.648;23.384;2023-07-28T04:12:59;2.42;;;2.22;;
56051;SDS011;41919;42.648;23.384;2023-07-28T04:15:25;2.38;;;2.13;;
56051;SDS011;41919;42.648;23.384;2023-07-28T04:17:50;2.50;;;2.30;;
56051;SDS011;41919;42.648;23.384;2023-07-28T04:20:15;3.83;;;2.17;;
56051;SDS011;41919;42.648;23.384;2023-07-28T04:22:41;2.28;;;2.17;;
56051;SDS011;41919;42.648;23.384;2023-07-28T04:25:06;4.38;;;2.25;;
56051;SDS011;41919;42.648;23.384;2023-07-28T04:27:32;3.38;;;2.35;;
56051;SDS011;41919;42.648;23.384;2023-07-28T04:29:57;2.67;;;2.47;;
56051;SDS011;41919;42.648;23.384;2023-07-28T04:32:23;3.83;;;2.30;;
56051;SDS011;41919;42.648;23.384;2023-07-28T04:34:49;2.30;;;2.10;;
56051;SDS011;41919;42.648;23.384;2023-07-28T04:37:15;1.85;;;1.75;;
56051;SDS011;41919;42.648;23.384;2023-07-28T04:39:40;2.38;;;2.17;;
56051;SDS011;41919;42.648;23.384;2023-07-28T04:42:06;3.33;;;2.13;;
56051;SDS011;41919;42.648;23.384;2023-07-28T04:44:31;3.53;;;2.80;;
56051;SDS011;41919;42.648;23.384;2023-07-28T04:46:57;3.40;;;3.10;;
56051;SDS011;41919;42.648;23.384;2023-07-28T04:49:22;2.55;;;1.95;;
56051;SDS011;41919;42.648;23.384;2023-07-28T04:51:47;2.20;;;2.10;;
56051;SDS011;41919;42.648;23.384;2023-07-28T04:54:13;2.30;;;2.10;;
56051;SDS011;41919;42.648;23.384;2023-07-28T04:56:38;1.98;;;1.77;;
56051;SDS011;41919;42.648;23.384;2023-07-28T04:59:03;3.70;;;2.25;;
56051;SDS011;41919;42.648;23.384;2023-07-28T05:01:29;2.33;;;2.08;;
56051;SDS011;41919;42.648;23.384;2023-07-28T05:03:54;2.80;;;2.50;;
56051;SDS011;41919;42.648;23.384;2023-07-28T05:06:20;2.70;;;2.50;;
56051;SDS011;41919;42.648;23.384;2023-07-28T05:08:45;3.15;;;2.22;;
56051;SDS011;41919;42.648;23.384;2023-07-28T05:11:11;2.58;;;2.22;;
56051;SDS011;41919;42.648;23.384;2023-07-28T05:13:36;3.00;;;2.20;;
56051;SDS011;41919;42.648;23.384;2023-07-28T05:16:01;3.03;;;2.30;;
56051;SDS011;41919;42.648;23.384;2023-07-28T05:18:26;3.85;;;2.38;;
56051;SDS011;41919;42.648;23.384;2023-07-28T05:20:52;4.55;;;2.67;;
56051;SDS011;41919;42.648;23.384;2023-07-28T05:23:17;3.55;;;2.47;;
56051;SDS011;41919;42.648;23.384;2023-07-28T05:25:42;3.13;;;2.40;;
56051;SDS011;41919;42.648;23.384;2023-07-28T05:28:08;4.97;;;2.38;;
56051;SDS011;41919;42.648;23.384;2023-07-28T05:30:33;3.70;;;2.53;;
56051;SDS011;41919;42.648;23.384;2023-07-28T05:32:59;2.90;;;2.70;;
56051;SDS011;41919;42.648;23.384;2023-07-28T05:35:24;4.80;;;2.55;;
56051;SDS011;41919;42.648;23.384;2023-07-28T05:37:49;3.20;;;2.50;;
56051;SDS011;41919;42.648;23.384;2023-07-28T05:40:15;2.70;;;2.50;;
56051;SDS011;41919;42.648;23.384;2023-07-28T05:42:40;4.25;;;2.70;;
56051;SDS011;41919;42.648;23.384;2023-07-28T05:45:06;6.75;;;2.95;;
56051;SDS011;41919;42.648;23.384;2023-07-28T05:47:31;7.68;;;3.10;;
56051;SDS011;41919;42.648;23.384;2023-07-28T05:49:57;4.55;;;3.10;;
56051;SDS011;41919;42.648;23.384;2023-07-28T05:52:22;7.13;;;2.90;;
56051;SDS011;41919;42.648;23.384;2023-07-28T05:54:48;4.80;;;3.03;;
56051;SDS011;41919;42.648;23.384;2023-07-28T05:57:13;5.53;;;2.78;;
56051;SDS011;41919;42.648;23.384;2023-07-28T05:59:39;6.15;;;2.97;;
56051;SDS011;41919;42.648;23.384;2023-07-28T06:02:04;3.05;;;2.80;;
56051;SDS011;41919;42.648;23.384;2023-07-28T06:04:29;6.10;;;2.92;;
56051;SDS011;41919;42.648;23.384;2023-07-28T06:06:55;3.03;;;2.72;;
56051;SDS011;41919;42.648;23.384;2023-07-28T06:09:20;3.63;;;2.72;;
56051;SDS011;41919;42.648;23.384;2023-07-28T06:11:45;5.25;;;2.80;;
56051;SDS011;41919;42.648;23.384;2023-07-28T06:14:11;4.43;;;2.45;;
56051;SDS011;41919;42.648;23.384;2023-07-28T06:16:36;3.47;;;2.10;;
56051;SDS011;41919;42.648;23.384;2023-07-28T06:19:02;2.83;;;2.20;;
56051;SDS011;41919;42.648;23.384;2023-07-28T06:21:29;4.07;;;2.33;;
56051;SDS011;41919;42.648;23.384;2023-07-28T06:23:54;3.33;;;2.10;;
56051;SDS011;41919;42.648;23.384;2023-07-28T06:26:20;2.83;;;2.00;;
56051;SDS011;41919;42.648;23.384;2023-07-28T06:28:45;2.80;;;2.05;;
56051;SDS011;41919;42.648;23.384;2023-07-28T06:31:11;5.32;;;2.72;;
56051;SDS011;41919;42.648;23.384;2023-07-28T06:36:26;5.35;;;2.55;;
56051;SDS011;41919;42.648;23.384;2023-07-28T06:38:52;4.20;;;2.35;;
56051;SDS011;41919;42.648;23.384;2023-07-28T06:41:20;5.63;;;2.20;;
56051;SDS011;41919;42.648;23.384;2023-07-28T06:43:45;3.55;;;2.47;;
56051;SDS011;41919;42.648;23.384;2023-07-28T06:46:11;5.00;;;2.80;;
56051;SDS011;41919;42.648;23.384;2023-07-28T06:48:36;7.60;;;2.40;;
56051;SDS011;41919;42.648;23.384;2023-07-28T06:51:01;3.58;;;2.28;;
56051;SDS011;41919;42.648;23.384;2023-07-28T06:53:27;7.93;;;2.40;;
56051;SDS011;41919;42.648;23.384;2023-07-28T06:55:52;2.38;;;2.03;;
56051;SDS011;41919;42.648;23.384;2023-07-28T06:58:18;3.75;;;2.70;;
56051;SDS011;41919;42.648;23.384;2023-07-28T07:00:43;4.60;;;2.85;;
56051;SDS011;41919;42.648;23.384;2023-07-28T07:03:09;4.90;;;2.55;;
56051;SDS011;41919;42.648;23.384;2023-07-28T07:05:35;4.10;;;2.65;;
56051;SDS011;41919;42.648;23.384;2023-07-28T07:08:01;4.90;;;2.35;;
56051;SDS011;41919;42.648;23.384;2023-07-28T07:10:26;3.47;;;2.47;;
56051;SDS011;41919;42.648;23.384;2023-07-28T07:12:52;3.80;;;2.50;;
56051;SDS011;41919;42.648;23.384;2023-07-28T07:15:17;4.70;;;2.20;;
56051;SDS011;41919;42.648;23.384;2023-07-28T07:17:42;3.22;;;2.30;;
56051;SDS011;41919;42.648;23.384;2023-07-28T07:20:08;3.35;;;2.70;;
56051;SDS011;41919;42.648;23.384;2023-07-28T07:22:35;6.88;;;2.83;;
56051;SDS011;41919;42.648;23.384;2023-07-28T07:25:01;4.35;;;2.83;;
56051;SDS011;41919;42.648;23.384;2023-07-28T07:27:29;11.55;;;2.50;;
56051;SDS011;41919;42.648;23.384;2023-07-28T07:29:54;3.78;;;2.90;;
56051;SDS011;41919;42.648;23.384;2023-07-28T07:32:19;2.58;;;2.38;;
56051;SDS011;41919;42.648;23.384;2023-07-28T07:34:45;4.75;;;3.38;;
56051;SDS011;41919;42.648;23.384;2023-07-28T07:37:10;3.47;;;2.75;;
56051;SDS011;41919;42.648;23.384;2023-07-28T07:39:35;6.28;;;2.72;;
56051;SDS011;41919;42.648;23.384;2023-07-28T07:42:01;5.60;;;2.90;;
56051;SDS011;41919;42.648;23.384;2023-07-28T07:44:27;2.85;;;2.45;;
56051;SDS011;41919;42.648;23.384;2023-07-28T07:46:52;3.22;;;2.53;;
56051;SDS011;41919;42.648;23.384;2023-07-28T07:49:18;2.80;;;2.53;;
56051;SDS011;41919;42.648;23.384;2023-07-28T07:51:43;3.90;;;2.65;;
56051;SDS011;41919;42.648;23.384;2023-07-28T07:54:09;5.97;;;2.90;;
56051;SDS011;41919;42.648;23.384;2023-07-28T07:56:34;3.05;;;2.65;;
56051;SDS011;41919;42.648;23.384;2023-07-28T07:58:59;7.57;;;2.83;;
56051;SDS011;41919;42.648;23.384;2023-07-28T08:01:25;4.00;;;2.42;;
56051;SDS011;41919;42.648;23.384;2023-07-28T08:03:50;3.95;;;2.20;;
56051;SDS011;41919;42.648;23.384;2023-07-28T08:06:16;5.18;;;2.80;;
56051;SDS011;41919;42.648;23.384;2023-07-28T08:08:41;5.25;;;2.63;;
56051;SDS011;41919;42.648;23.384;2023-07-28T08:11:06;6.00;;;2.50;;
56051;SDS011;41919;42.648;23.384;2023-07-28T08:13:32;4.70;;;2.75;;
56051;SDS011;41919;42.648;23.384;2023-07-28T08:15:58;3.58;;;2.30;;
56051;SDS011;41919;42.648;23.384;2023-07-28T08:18:23;2.70;;;2.28;;
56051;SDS011;41919;42.648;23.384;2023-07-28T08:20:48;2.88;;;2.08;;
56051;SDS011;41919;42.648;23.384;2023-07-28T08:23:14;4.78;;;2.25;;
56051;SDS011;41919;42.648;23.384;2023-07-28T08:25:39;4.22;;;2.25;;
56051;SDS011;41919;42.648;23.384;2023-07-28T08:28:05;3.90;;;2.40;;
56051;SDS011;41919;42.648;23.384;2023-07-28T08:30:30;3.45;;;2.40;;
56051;SDS011;41919;42.648;23.384;2023-07-28T08:32:57;3.83;;;2.40;;
56051;SDS011;41919;42.648;23.384;2023-07-28T08:35:22;2.22;;;2.03;;
56051;SDS011;41919;42.648;23.384;2023-07-28T08:37:48;2.83;;;2.10;;
56051;SDS011;41919;42.648;23.384;2023-07-28T08:40:13;5.03;;;2.22;;
56051;SDS011;41919;42.648;23.384;2023-07-28T08:42:39;2.40;;;2.17;;
56051;SDS011;41919;42.648;23.384;2023-07-28T08:45:06;7.38;;;2.67;;
56051;SDS011;41919;42.648;23.384;2023-07-28T08:47:33;2.85;;;2.35;;
56051;SDS011;41919;42.648;23.384;2023-07-28T08:49:59;2.72;;;2.00;;
56051;SDS011;41919;42.648;23.384;2023-07-28T08:52:25;2.42;;;2.20;;
56051;SDS011;41919;42.648;23.384;2023-07-28T08:54:51;2.97;;;2.17;;
56051;SDS011;41919;42.648;23.384;2023-07-28T08:57:16;3.58;;;2.47;;
56051;SDS011;41919;42.648;23.384;2023-07-28T08:59:42;5.47;;;2.50;;
56051;SDS011;41919;42.648;23.384;2023-07-28T09:02:13;4.22;;;1.92;;
56051;SDS011;41919;42.648;23.384;2023-07-28T09:04:41;2.80;;;2.20;;
56051;SDS011;41919;42.648;23.384;2023-07-28T09:07:10;2.25;;;2.00;;
56051;SDS011;41919;42.648;23.384;2023-07-28T09:09:36;2.30;;;1.90;;
56051;SDS011;41919;42.648;23.384;2023-07-28T09:12:02;2.75;;;1.60;;
56051;SDS011;41919;42.648;23.384;2023-07-28T09:14:28;2.10;;;1.98;;
56051;SDS011;41919;42.648;23.384;2023-07-28T09:16:54;4.05;;;2.13;;
56051;SDS011;41919;42.648;23.384;2023-07-28T09:19:20;2.97;;;2.00;;
56051;SDS011;41919;42.648;23.384;2023-07-28T09:21:47;3.40;;;2.13;;
56051;SDS011;41919;42.648;23.384;2023-07-28T09:24:22;2.03;;;1.83;;
56051;SDS011;41919;42.648;23.384;2023-07-28T09:26:56;3.67;;;2.00;;
56051;SDS011;41919;42.648;23.384;2023-07-28T09:29:23;3.40;;;2.22;;
56051;SDS011;41919;42.648;23.384;2023-07-28T09:31:49;5.53;;;2.20;;
56051;SDS011;41919;42.648;23.384;2023-07-28T09:34:24;3.72;;;2.17;;
56051;SDS011;41919;42.648;23.384;2023-07-28T09:36:54;3.58;;;1.90;;
56051;SDS011;41919;42.648;23.384;2023-07-28T09:39:21;3.40;;;2.08;;
56051;SDS011;41919;42.648;23.384;2023-07-28T09:41:47;5.25;;;2.35;;
56051;SDS011;41919;42.648;23.384;2023-07-28T09:44:12;3.92;;;2.15;;
56051;SDS011;41919;42.648;23.384;2023-07-28T09:46:43;2.05;;;1.92;;
56051;SDS011;41919;42.648;23.384;2023-07-28T09:49:36;2.65;;;2.08;;
56051;SDS011;41919;42.648;23.384;2023-07-28T09:52:08;2.10;;;2.00;;
56051;SDS011;41919;42.648;23.384;2023-07-28T09:54:38;2.80;;;2.08;;
56051;SDS011;41919;42.648;23.384;2023-07-28T09:57:05;3.13;;;2.00;;
56051;SDS011;41919;42.648;23.384;2023-07-28T09:59:37;2.75;;;2.20;;
56051;SDS011;41919;42.648;23.384;2023-07-28T10:02:04;3.47;;;1.80;;
56051;SDS011;41919;42.648;23.384;2023-07-28T10:04:30;2.80;;;2.13;;
56051;SDS011;41919;42.648;23.384;2023-07-28T10:06:57;3.35;;;2.40;;
56051;SDS011;41919;42.648;23.384;2023-07-28T10:09:26;4.25;;;2.05;;
56051;SDS011;41919;42.648;23.384;2023-07-28T10:11:54;2.63;;;2.22;;
56051;SDS011;41919;42.648;23.384;2023-07-28T10:14:26;5.88;;;2.50;;
56051;SDS011;41919;42.648;23.384;2023-07-28T10:16:57;2.28;;;2.00;;
56051;SDS011;41919;42.648;23.384;2023-07-28T10:19:26;3.90;;;2.10;;
56051;SDS011;41919;42.648;23.384;2023-07-28T10:21:59;3.35;;;2.20;;
56051;SDS011;41919;42.648;23.384;2023-07-28T10:27:40;3.20;;;2.25;;
56051;SDS011;41919;42.648;23.384;2023-07-28T10:30:11;5.20;;;2.10;;
56051;SDS011;41919;42.648;23.384;2023-07-28T10:32:41;5.93;;;2.25;;
56051;SDS011;41919;42.648;23.384;2023-07-28T10:37:36;3.60;;;2.35;;
56051;SDS011;41919;42.648;23.384;2023-07-28T10:42:53;7.03;;;2.20;;
56051;SDS011;41919;42.648;23.384;2023-07-28T10:45:19;3.13;;;2.20;;
56051;SDS011;41919;42.648;23.384;2023-07-28T10:47:45;2.30;;;2.10;;
56051;SDS011;41919;42.648;23.384;2023-07-28T10:50:11;2.13;;;1.95;;
56051;SDS011;41919;42.648;23.384;2023-07-28T10:52:40;4.63;;;2.50;;
56051;SDS011;41919;42.648;23.384;2023-07-28T10:55:20;4.60;;;3.33;;
56051;SDS011;41919;42.648;23.384;2023-07-28T10:57:47;4.22;;;2.38;;
56051;SDS011;41919;42.648;23.384;2023-07-28T11:00:21;2.50;;;2.30;;
56051;SDS011;41919;42.648;23.384;2023-07-28T11:05:22;5.35;;;2.47;;
56051;SDS011;41919;42.648;23.384;2023-07-28T11:07:53;3.22;;;2.42;;
56051;SDS011;41919;42.648;23.384;2023-07-28T11:10:20;3.13;;;2.58;;
56051;SDS011;41919;42.648;23.384;2023-07-28T11:12:49;7.45;;;2.65;;
56051;SDS011;41919;42.648;23.384;2023-07-28T11:15:16;4.63;;;2.60;;
56051;SDS011;41919;42.648;23.384;2023-07-28T11:17:49;3.45;;;2.60;;
56051;SDS011;41919;42.648;23.384;2023-07-28T11:22:46;3.13;;;2.33;;
56051;SDS011;41919;42.648;23.384;2023-07-28T11:25:18;4.57;;;2.20;;
56051;SDS011;41919;42.648;23.384;2023-07-28T11:27:44;5.90;;;2.30;;
56051;SDS011;41919;42.648;23.384;2023-07-28T11:30:16;4.95;;;2.22;;
56051;SDS011;41919;42.648;23.384;2023-07-28T11:32:44;5.18;;;2.58;;
56051;SDS011;41919;42.648;23.384;2023-07-28T11:35:11;4.35;;;2.25;;
56051;SDS011;41919;42.648;23.384;2023-07-28T11:37:39;2.85;;;2.33;;
56051;SDS011;41919;42.648;23.384;2023-07-28T11:40:06;6.70;;;2.40;;
56051;SDS011;41919;42.648;23.384;2023-07-28T11:42:40;4.05;;;2.25;;
56051;SDS011;41919;42.648;23.384;2023-07-28T11:45:08;2.72;;;2.25;;
56051;SDS011;41919;42.648;23.384;2023-07-28T11:47:35;3.05;;;2.10;;
56051;SDS011;41919;42.648;23.384;2023-07-28T11:50:00;2.40;;;2.20;;
56051;SDS011;41919;42.648;23.384;2023-07-28T11:52:30;4.15;;;2.28;;
56051;SDS011;41919;42.648;23.384;2023-07-28T11:54:57;4.80;;;2.20;;
56051;SDS011;41919;42.648;23.384;2023-07-28T11:57:24;4.28;;;2.70;;
56051;SDS011;41919;42.648;23.384;2023-07-28T11:59:50;6.15;;;2.65;;
56051;SDS011;41919;42.648;23.384;2023-07-28T12:02:23;6.07;;;2.50;;
56051;SDS011;41919;42.648;23.384;2023-07-28T12:04:50;2.50;;;2.30;;
56051;SDS011;41919;42.648;23.384;2023-07-28T12:07:18;4.22;;;2.13;;
56051;SDS011;41919;42.648;23.384;2023-07-28T12:09:47;3.15;;;2.20;;
56051;SDS011;41919;42.648;23.384;2023-07-28T12:12:39;2.30;;;2.05;;
56051;SDS011;41919;42.648;23.384;2023-07-28T12:15:22;8.73;;;2.08;;
56051;SDS011;41919;42.648;23.384;2023-07-28T12:20:39;2.63;;;2.10;;
56051;SDS011;41919;42.648;23.384;2023-07-28T12:23:07;2.53;;;2.33;;
56051;SDS011;41919;42.648;23.384;2023-07-28T12:25:33;5.13;;;2.50;;
56051;SDS011;41919;42.648;23.384;2023-07-28T12:28:01;4.53;;;2.30;;
56051;SDS011;41919;42.648;23.384;2023-07-28T12:30:27;5.25;;;2.28;;
56051;SDS011;41919;42.648;23.384;2023-07-28T12:32:52;2.10;;;1.90;;
56051;SDS011;41919;42.648;23.384;2023-07-28T12:35:18;4.35;;;2.28;;
56051;SDS011;41919;42.648;23.384;2023-07-28T12:37:43;2.05;;;1.90;;
56051;SDS011;41919;42.648;23.384;2023-07-28T12:40:09;2.55;;;2.25;;
56051;SDS011;41919;42.648;23.384;2023-07-28T12:42:35;3.03;;;2.03;;
56051;SDS011;41919;42.648;23.384;2023-07-28T12:45:00;2.13;;;1.92;;
56051;SDS011;41919;42.648;23.384;2023-07-28T12:47:26;2.95;;;2.05;;
56051;SDS011;41919;42.648;23.384;2023-07-28T12:49:51;2.42;;;1.80;;
56051;SDS011;41919;42.648;23.384;2023-07-28T12:52:17;3.10;;;2.33;;
56051;SDS011;41919;42.648;23.384;2023-07-28T12:54:42;6.55;;;2.28;;
56051;SDS011;41919;42.648;23.384;2023-07-28T12:57:08;2.67;;;2.10;;
56051;SDS011;41919;42.648;23.384;2023-07-28T12:59:35;2.03;;;1.92;;
56051;SDS011;41919;42.648;23.384;2023-07-28T13:02:01;5.32;;;2.50;;
56051;SDS011;41919;42.648;23.384;2023-07-28T13:04:27;2.80;;;2.60;;
56051;SDS011;41919;42.648;23.384;2023-07-28T13:06:52;2.92;;;2.20;;
56051;SDS011;41919;42.648;23.384;2023-07-28T13:09:18;2.25;;;2.05;;
56051;SDS011;41919;42.648;23.384;2023-07-28T13:11:43;3.50;;;2.55;;
56051;SDS011;41919;42.648;23.384;2023-07-28T13:14:08;4.13;;;2.20;;
56051;SDS011;41919;42.648;23.384;2023-07-28T13:16:34;2.10;;;2.00;;
56051;SDS011;41919;42.648;23.384;2023-07-28T13:19:01;2.40;;;2.20;;
56051;SDS011;41919;42.648;23.384;2023-07-28T13:21:26;2.08;;;1.98;;
56051;SDS011;41919;42.648;23.384;2023-07-28T13:23:51;3.13;;;2.13;;
56051;SDS011;41919;42.648;23.384;2023-07-28T13:26:17;3.33;;;2.03;;
56051;SDS011;41919;42.648;23.384;2023-07-28T13:28:42;2.17;;;1.98;;
56051;SDS011;41919;42.648;23.384;2023-07-28T13:31:12;3.22;;;2.30;;
56051;SDS011;41919;42.648;23.384;2023-07-28T13:33:42;3.70;;;2.08;;
56051;SDS011;41919;42.648;23.384;2023-07-28T13:36:07;3.88;;;1.90;;
56051;SDS011;41919;42.648;23.384;2023-07-28T13:38:33;2.90;;;2.00;;
56051;SDS011;41919;42.648;23.384;2023-07-28T13:40:59;2.80;;;1.75;;
56051;SDS011;41919;42.648;23.384;2023-07-28T13:43:24;5.32;;;2.15;;
56051;SDS011;41919;42.648;23.384;2023-07-28T13:45:50;3.00;;;2.50;;
56051;SDS011;41919;42.648;23.384;2023-07-28T13:48:15;2.50;;;2.30;;
56051;SDS011;41919;42.648;23.384;2023-07-28T13:50:41;2.10;;;2.00;;
56051;SDS011;41919;42.648;23.384;2023-07-28T13:53:06;4.65;;;2.55;;
56051;SDS011;41919;42.648;23.384;2023-07-28T13:55:32;2.45;;;2.25;;
56051;SDS011;41919;42.648;23.384;2023-07-28T13:57:57;1.98;;;1.88;;
56051;SDS011;41919;42.648;23.384;2023-07-28T14:00:22;3.03;;;2.10;;
56051;SDS011;41919;42.648;23.384;2023-07-28T14:02:48;2.10;;;2.00;;
56051;SDS011;41919;42.648;23.384;2023-07-28T14:05:13;2.38;;;2.17;;
56051;SDS011;41919;42.648;23.384;2023-07-28T14:07:38;2.20;;;2.00;;
56051;SDS011;41919;42.648;23.384;2023-07-28T14:10:04;3.15;;;2.40;;
56051;SDS011;41919;42.648;23.384;2023-07-28T14:12:30;5.13;;;2.40;;
56051;SDS011;41919;42.648;23.384;2023-07-28T14:14:55;2.15;;;1.98;;
56051;SDS011;41919;42.648;23.384;2023-07-28T14:17:20;2.75;;;2.22;;
56051;SDS011;41919;42.648;23.384;2023-07-28T14:19:46;4.30;;;2.03;;
56051;SDS011;41919;42.648;23.384;2023-07-28T14:22:12;2.70;;;2.20;;
56051;SDS011;41919;42.648;23.384;2023-07-28T14:24:37;3.08;;;2.03;;
56051;SDS011;41919;42.648;23.384;2023-07-28T14:27:03;2.33;;;2.13;;
56051;SDS011;41919;42.648;23.384;2023-07-28T14:29:29;2.47;;;2.28;;
56051;SDS011;41919;42.648;23.384;2023-07-28T14:31:54;2.50;;;2.33;;
56051;SDS011;41919;42.648;23.384;2023-07-28T14:34:20;2.85;;;2.08;;
56051;SDS011;41919;42.648;23.384;2023-07-28T14:36:45;3.45;;;2.13;;
56051;SDS011;41919;42.648;23.384;2023-07-28T14:39:10;2.72;;;2.47;;
56051;SDS011;41919;42.648;23.384;2023-07-28T14:41:36;3.70;;;2.28;;
56051;SDS011;41919;42.648;23.384;2023-07-28T14:44:02;2.15;;;1.95;;
56051;SDS011;41919;42.648;23.384;2023-07-28T14:46:27;2.03;;;1.92;;
56051;SDS011;41919;42.648;23.384;2023-07-28T14:48:53;2.22;;;2.03;;
56051;SDS011;41919;42.648;23.384;2023-07-28T14:51:19;2.75;;;2.33;;
56051;SDS011;41919;42.648;23.384;2023-07-28T14:53:44;2.35;;;2.13;;
56051;SDS011;41919;42.648;23.384;2023-07-28T14:56:13;5.05;;;2.30;;